createdAt,value
2018-08-20T00:00:20.300Z,16.84
2018-08-20T00:02:47.481Z,16.76
2018-08-20T00:05:14.912Z,16.90
2018-08-20T00:07:42.527Z,16.94
2018-08-20T00:10:10.248Z,17.06
2018-08-20T00:12:37.496Z,17.24
2018-08-20T00:15:04.830Z,17.34
2018-08-20T00:17:31.921Z,17.34
2018-08-20T00:19:59.231Z,17.38
2018-08-20T00:22:26.367Z,17.43
2018-08-20T00:25:05.236Z,17.38
2018-08-20T00:27:32.389Z,17.30
2018-08-20T00:29:59.595Z,17.24
2018-08-20T00:32:26.715Z,17.18
2018-08-20T00:34:53.807Z,17.21
2018-08-20T00:37:20.966Z,17.32
2018-08-20T00:39:48.138Z,17.28
2018-08-20T00:42:15.311Z,17.32
2018-08-20T00:44:42.393Z,17.40
2018-08-20T00:47:09.594Z,17.51
2018-08-20T00:49:36.845Z,17.58
2018-08-20T00:52:03.972Z,17.50
2018-08-20T00:54:31.206Z,17.51
2018-08-20T00:56:58.291Z,17.47
2018-08-20T00:59:25.367Z,17.42
2018-08-20T01:01:52.560Z,17.40
2018-08-20T01:04:19.682Z,17.38
2018-08-20T01:06:46.867Z,17.37
2018-08-20T01:09:14.015Z,17.36
2018-08-20T01:11:41.155Z,17.40
2018-08-20T01:14:08.449Z,17.36
2018-08-20T01:16:35.596Z,17.33
2018-08-20T01:19:02.840Z,17.35
2018-08-20T01:21:30.007Z,17.28
2018-08-20T01:23:57.176Z,17.19
2018-08-20T01:26:25.371Z,17.15
2018-08-20T01:28:52.500Z,17.11
2018-08-20T01:31:19.783Z,17.09
2018-08-20T01:33:46.862Z,16.99
2018-08-20T01:36:14.029Z,16.95
2018-08-20T01:38:41.272Z,16.86
2018-08-20T01:41:08.412Z,16.78
2018-08-20T01:43:35.609Z,16.74
2018-08-20T01:46:02.757Z,16.70
2018-08-20T01:48:29.878Z,16.66
2018-08-20T01:50:57.048Z,16.70
2018-08-20T01:53:24.218Z,16.66
2018-08-20T01:55:51.432Z,16.64
2018-08-20T01:58:20.693Z,16.65
2018-08-20T02:00:47.836Z,16.58
2018-08-20T02:03:15.022Z,16.53
2018-08-20T02:05:42.174Z,16.48
2018-08-20T02:08:09.500Z,16.41
2018-08-20T02:10:36.671Z,16.34
2018-08-20T02:13:03.790Z,16.28
2018-08-20T02:15:30.989Z,16.24
2018-08-20T02:17:59.020Z,16.28
2018-08-20T02:20:26.808Z,16.23
2018-08-20T02:22:54.023Z,16.25
2018-08-20T02:25:21.149Z,16.28
2018-08-20T02:27:48.319Z,16.21
2018-08-20T02:30:15.477Z,16.18
2018-08-20T02:32:43.459Z,16.10
2018-08-20T02:35:10.592Z,16.04
2018-08-20T02:37:44.305Z,16.00
2018-08-20T02:40:12.852Z,15.92
2018-08-20T02:42:40.065Z,15.88
2018-08-20T02:45:13.571Z,15.84
2018-08-20T02:47:41.528Z,15.90
2018-08-20T02:50:09.291Z,15.89
2018-08-20T02:52:36.514Z,15.82
2018-08-20T02:55:03.952Z,15.81
2018-08-20T02:57:31.119Z,15.75
2018-08-20T02:59:58.267Z,15.70
2018-08-20T03:02:25.404Z,15.68
2018-08-20T03:04:52.585Z,15.64
2018-08-20T03:07:19.839Z,15.62
2018-08-20T03:09:47.041Z,15.53
2018-08-20T03:12:14.198Z,15.54
2018-08-20T03:14:41.397Z,15.49
2018-08-20T03:17:08.624Z,15.48
2018-08-20T03:19:35.750Z,15.43
2018-08-20T03:22:02.991Z,15.39
2018-08-20T03:24:30.168Z,15.38
2018-08-20T03:26:57.290Z,15.36
2018-08-20T03:29:24.561Z,15.36
2018-08-20T03:31:51.717Z,15.41
2018-08-20T03:34:19.041Z,15.40
2018-08-20T03:36:46.221Z,15.37
2018-08-20T03:39:13.336Z,15.38
2018-08-20T03:41:40.510Z,15.35
2018-08-20T03:44:07.678Z,15.31
2018-08-20T03:46:34.954Z,15.28
2018-08-20T03:49:02.086Z,15.26
2018-08-20T03:51:29.421Z,15.23
2018-08-20T03:53:56.610Z,15.20
2018-08-20T03:56:23.736Z,15.19
2018-08-20T03:58:50.997Z,15.17
2018-08-20T04:01:18.118Z,15.17
2018-08-20T04:03:45.797Z,15.15
2018-08-20T04:06:13.149Z,15.14
2018-08-20T04:08:40.253Z,15.13
2018-08-20T04:11:07.680Z,15.17
2018-08-20T04:13:34.880Z,15.13
2018-08-20T04:16:01.989Z,15.13
2018-08-20T04:18:29.168Z,15.12
2018-08-20T04:20:56.364Z,15.15
2018-08-20T04:23:23.572Z,15.15
2018-08-20T04:25:50.716Z,15.17
2018-08-20T04:28:17.929Z,15.19
2018-08-20T04:30:46.258Z,15.22
2018-08-20T04:33:13.545Z,15.26
2018-08-20T04:35:41.037Z,15.32
2018-08-20T04:38:08.365Z,15.44
2018-08-20T04:40:35.580Z,15.49
2018-08-20T04:43:03.196Z,15.61
2018-08-20T04:45:30.435Z,15.65
2018-08-20T04:47:57.695Z,15.72
2018-08-20T04:50:25.107Z,15.77
2018-08-20T04:52:52.349Z,15.83
2018-08-20T04:55:19.677Z,15.87
2018-08-20T04:57:47.229Z,15.93
2018-08-20T05:00:14.546Z,15.97
2018-08-20T05:02:41.722Z,16.04
2018-08-20T05:05:09.053Z,16.11
2018-08-20T05:07:36.428Z,16.16
2018-08-20T05:10:04.827Z,16.23
2018-08-20T05:12:32.147Z,16.38
2018-08-20T05:14:59.768Z,16.50
2018-08-20T05:17:27.474Z,16.58
2018-08-20T05:19:54.826Z,16.75
2018-08-20T05:22:22.078Z,16.87
2018-08-20T05:24:49.468Z,17.05
2018-08-20T05:27:16.784Z,17.07
2018-08-20T05:29:45.497Z,17.22
2018-08-20T05:32:13.893Z,17.37
2018-08-20T05:34:42.601Z,17.47
2018-08-20T05:37:09.877Z,17.58
2018-08-20T05:39:37.872Z,17.75
2018-08-20T05:42:05.660Z,17.88
2018-08-20T05:44:32.924Z,17.99
2018-08-20T05:47:01.222Z,18.13
2018-08-20T05:49:28.536Z,18.29
2018-08-20T05:51:55.713Z,18.34
2018-08-20T05:54:22.915Z,18.46
2018-08-20T05:56:50.280Z,18.57
2018-08-20T05:59:17.494Z,18.67
2018-08-20T06:01:44.694Z,18.70
2018-08-20T06:04:12.864Z,18.85
2018-08-20T06:06:40.021Z,19.01
2018-08-20T06:09:08.822Z,19.09
2018-08-20T06:11:36.049Z,19.38
2018-08-20T06:14:03.386Z,19.67
2018-08-20T06:16:30.532Z,19.76
2018-08-20T06:18:57.795Z,19.88
2018-08-20T06:21:25.048Z,19.89
2018-08-20T06:23:53.303Z,20.03
2018-08-20T06:26:20.567Z,20.26
2018-08-20T06:28:47.735Z,20.43
2018-08-20T06:31:14.889Z,20.75
2018-08-20T06:33:42.112Z,20.87
2018-08-20T06:36:09.293Z,21.03
2018-08-20T06:38:36.480Z,21.25
2018-08-20T06:41:03.744Z,21.36
2018-08-20T06:43:31.127Z,21.77
2018-08-20T06:45:58.372Z,22.15
2018-08-20T06:48:25.768Z,22.25
2018-08-20T06:50:52.975Z,22.32
2018-08-20T06:53:20.071Z,22.25
2018-08-20T06:55:47.275Z,22.21
2018-08-20T06:58:14.814Z,22.23
2018-08-20T07:00:41.950Z,22.34
2018-08-20T07:03:09.622Z,22.38
2018-08-20T07:05:36.780Z,22.49
2018-08-20T07:08:03.925Z,22.52
2018-08-20T07:10:41.621Z,22.59
2018-08-20T07:13:35.611Z,22.70
2018-08-20T07:16:03.035Z,22.82
2018-08-20T07:18:30.237Z,22.96
2018-08-20T07:20:57.475Z,22.98
2018-08-20T07:23:24.794Z,23.09
2018-08-20T07:25:51.929Z,23.26
2018-08-20T07:28:19.090Z,23.41
2018-08-20T07:30:47.446Z,23.50
2018-08-20T07:33:14.726Z,23.64
2018-08-20T07:35:42.090Z,23.91
2018-08-20T07:38:09.394Z,24.21
2018-08-20T07:40:36.565Z,24.25
2018-08-20T07:43:03.770Z,24.35
2018-08-20T07:45:31.001Z,24.33
2018-08-20T07:47:58.241Z,24.33
2018-08-20T07:50:25.368Z,24.30
2018-08-20T07:52:52.581Z,24.17
2018-08-20T07:55:19.908Z,24.05
2018-08-20T07:57:47.105Z,24.16
2018-08-20T08:00:14.644Z,24.22
2018-08-20T08:02:41.796Z,24.39
2018-08-20T08:05:10.067Z,24.60
2018-08-20T08:07:37.492Z,24.71
2018-08-20T08:10:06.722Z,24.44
2018-08-20T08:12:34.050Z,24.44
2018-08-20T08:15:01.727Z,24.25
2018-08-20T08:17:28.948Z,24.04
2018-08-20T08:19:56.102Z,24.00
2018-08-20T08:22:23.384Z,23.88
2018-08-20T08:24:50.612Z,23.74
2018-08-20T08:27:17.740Z,23.62
2018-08-20T08:29:44.933Z,23.54
2018-08-20T08:32:12.080Z,23.45
2018-08-20T08:34:39.265Z,23.32
2018-08-20T08:37:06.576Z,23.53
2018-08-20T08:39:33.700Z,23.67
2018-08-20T08:42:00.974Z,23.69
2018-08-20T08:44:28.168Z,23.79
2018-08-20T08:46:55.449Z,23.90
2018-08-20T08:49:22.664Z,23.92
2018-08-20T08:51:49.921Z,23.92
2018-08-20T08:54:17.066Z,24.09
2018-08-20T08:56:44.224Z,24.12
2018-08-20T08:59:11.510Z,24.17
2018-08-20T09:01:38.743Z,24.18
2018-08-20T09:04:05.900Z,24.32
2018-08-20T09:06:33.069Z,24.26
2018-08-20T09:09:00.189Z,24.40
2018-08-20T09:11:27.683Z,24.14
2018-08-20T09:13:54.918Z,24.26
2018-08-20T09:16:22.052Z,24.26
2018-08-20T09:18:49.197Z,24.31
2018-08-20T09:21:16.411Z,24.37
2018-08-20T09:23:49.338Z,24.35
2018-08-20T09:26:16.617Z,24.66
2018-08-20T09:28:43.789Z,24.65
2018-08-20T09:31:10.932Z,24.51
2018-08-20T09:33:39.159Z,24.77
2018-08-20T09:36:06.362Z,24.90
2018-08-20T09:38:33.543Z,24.92
2018-08-20T09:41:00.742Z,25.17
2018-08-20T09:43:27.897Z,25.61
2018-08-20T09:45:55.017Z,25.92
2018-08-20T09:48:22.271Z,25.87
2018-08-20T09:50:49.452Z,25.95
2018-08-20T09:53:16.615Z,25.76
2018-08-20T09:55:43.785Z,25.92
2018-08-20T09:58:10.956Z,26.14
2018-08-20T10:00:40.117Z,26.03
2018-08-20T10:03:08.356Z,25.73
2018-08-20T10:05:35.542Z,25.46
2018-08-20T10:08:02.697Z,25.17
2018-08-20T10:10:29.897Z,24.87
2018-08-20T10:12:57.124Z,24.67
2018-08-20T10:15:24.320Z,24.55
2018-08-20T10:17:51.508Z,24.28
2018-08-20T10:20:18.699Z,24.20
2018-08-20T10:22:45.813Z,24.26
2018-08-20T10:25:13.055Z,24.26
2018-08-20T10:27:40.239Z,24.36
2018-08-20T10:30:08.720Z,24.34
2018-08-20T10:32:35.929Z,24.23
2018-08-20T10:35:03.073Z,24.33
2018-08-20T10:37:30.811Z,24.21
2018-08-20T10:39:57.985Z,24.33
2018-08-20T10:42:25.119Z,24.32
2018-08-20T10:44:52.819Z,24.30
2018-08-20T10:47:20.452Z,24.26
2018-08-20T10:49:47.740Z,24.21
2018-08-20T10:52:14.936Z,23.96
2018-08-20T10:54:42.121Z,23.83
2018-08-20T10:57:09.223Z,23.81
2018-08-20T10:59:37.212Z,23.84
2018-08-20T11:02:05.940Z,23.92
2018-08-20T11:04:33.101Z,24.07
2018-08-20T11:07:00.325Z,24.38
2018-08-20T11:09:28.287Z,24.77
2018-08-20T11:11:55.630Z,25.18
2018-08-20T11:14:22.896Z,25.53
2018-08-20T11:16:51.380Z,25.72
2018-08-20T11:19:18.527Z,25.98
2018-08-20T11:21:46.221Z,26.13
2018-08-20T11:24:13.390Z,26.08
2018-08-20T11:26:40.591Z,25.79
2018-08-20T11:29:07.828Z,25.60
2018-08-20T11:31:35.010Z,25.51
2018-08-20T11:34:02.212Z,25.26
2018-08-20T11:36:29.452Z,25.22
2018-08-20T11:38:56.727Z,24.91
2018-08-20T11:41:23.912Z,24.78
2018-08-20T11:43:51.065Z,24.66
2018-08-20T11:46:18.669Z,24.56
2018-08-20T11:48:46.733Z,24.65
2018-08-20T11:51:13.948Z,24.94
2018-08-20T11:53:41.225Z,25.09
2018-08-20T11:56:08.396Z,25.16
2018-08-20T11:58:35.511Z,25.22
2018-08-20T12:01:02.904Z,24.87
2018-08-20T12:03:30.493Z,24.95
2018-08-20T12:05:57.721Z,24.77
2018-08-20T12:08:24.913Z,24.79
2018-08-20T12:10:52.064Z,24.70
2018-08-20T12:13:19.217Z,24.64
2018-08-20T12:15:46.522Z,24.54
2018-08-20T12:18:13.773Z,24.59
2018-08-20T12:20:40.904Z,24.60
2018-08-20T12:23:08.157Z,24.56
2018-08-20T12:25:35.344Z,24.54
2018-08-20T12:28:02.533Z,24.81
2018-08-20T12:30:29.797Z,24.86
2018-08-20T12:32:56.894Z,24.93
2018-08-20T12:35:24.005Z,25.24
2018-08-20T12:37:51.168Z,25.29
2018-08-20T12:40:18.437Z,25.51
2018-08-20T12:42:45.592Z,25.61
2018-08-20T12:45:12.784Z,25.77
2018-08-20T12:47:39.944Z,25.67
2018-08-20T12:50:07.106Z,25.61
2018-08-20T12:52:34.326Z,25.62
2018-08-20T12:55:01.514Z,25.47
2018-08-20T12:57:28.660Z,25.32
2018-08-20T12:59:57.428Z,25.13
2018-08-20T13:02:24.680Z,24.82
2018-08-20T13:04:52.211Z,24.80
2018-08-20T13:07:19.489Z,24.45
2018-08-20T13:09:46.606Z,24.29
2018-08-20T13:12:14.226Z,24.20
2018-08-20T13:14:41.420Z,24.26
2018-08-20T13:17:08.592Z,24.26
2018-08-20T13:19:35.813Z,24.43
2018-08-20T13:22:03.036Z,24.56
2018-08-20T13:24:30.204Z,24.82
2018-08-20T13:26:57.367Z,24.98
2018-08-20T13:29:24.643Z,25.17
2018-08-20T13:31:51.830Z,25.26
2018-08-20T13:34:18.946Z,25.39
2018-08-20T13:36:46.129Z,25.39
2018-08-20T13:39:13.281Z,25.25
2018-08-20T13:41:40.470Z,24.99
2018-08-20T13:44:07.880Z,24.77
2018-08-20T13:46:35.017Z,24.55
2018-08-20T13:49:02.253Z,24.34
2018-08-20T13:51:29.470Z,24.47
2018-08-20T13:53:56.666Z,24.43
2018-08-20T13:56:23.885Z,24.68
2018-08-20T13:58:51.808Z,24.89
2018-08-20T14:01:18.974Z,24.82
2018-08-20T14:03:47.776Z,25.03
2018-08-20T14:06:15.152Z,25.18
2018-08-20T14:08:42.553Z,24.99
2018-08-20T14:11:09.677Z,25.00
2018-08-20T14:13:37.935Z,24.96
2018-08-20T14:16:05.079Z,25.05
2018-08-20T14:18:32.921Z,25.31
2018-08-20T14:21:11.721Z,25.20
2018-08-20T14:23:42.752Z,25.10
2018-08-20T14:26:10.703Z,25.10
2018-08-20T14:28:38.274Z,24.90
2018-08-20T14:31:05.792Z,24.89
2018-08-20T14:33:33.647Z,24.87
2018-08-20T14:36:01.121Z,24.93
2018-08-20T14:38:28.355Z,24.93
2018-08-20T14:40:55.720Z,25.11
2018-08-20T14:43:22.956Z,25.28
2018-08-20T14:45:55.781Z,25.32
2018-08-20T14:48:22.976Z,25.37
2018-08-20T14:50:50.121Z,25.58
2018-08-20T14:53:17.413Z,25.39
2018-08-20T14:55:44.674Z,25.63
2018-08-20T14:58:11.830Z,25.50
2018-08-20T15:00:39.025Z,25.36
2018-08-20T15:03:06.546Z,25.44
2018-08-20T15:05:33.747Z,25.16
2018-08-20T15:08:00.992Z,25.02
2018-08-20T15:10:29.194Z,25.10
2018-08-20T15:12:56.299Z,25.00
2018-08-20T15:15:23.566Z,24.92
2018-08-20T15:17:50.684Z,24.82
2018-08-20T15:20:17.907Z,24.87
2018-08-20T15:22:45.083Z,24.77
2018-08-20T15:25:12.230Z,24.88
2018-08-20T15:27:39.408Z,24.79
2018-08-20T15:30:06.933Z,24.82
2018-08-20T15:32:34.193Z,24.71
2018-08-20T15:35:01.308Z,24.76
2018-08-20T15:37:28.497Z,24.51
2018-08-20T15:39:55.621Z,24.29
2018-08-20T15:42:22.875Z,24.08
2018-08-20T15:44:50.104Z,23.99
2018-08-20T15:47:17.228Z,23.98
2018-08-20T15:49:44.567Z,24.10
2018-08-20T15:52:11.772Z,24.12
2018-08-20T15:54:38.941Z,24.09
2018-08-20T15:57:06.180Z,24.12
2018-08-20T15:59:33.389Z,24.01
2018-08-20T16:02:00.563Z,23.91
2018-08-20T16:04:27.691Z,23.93
2018-08-20T16:06:54.941Z,23.91
2018-08-20T16:09:22.175Z,23.84
2018-08-20T16:11:49.315Z,23.88
2018-08-20T16:14:16.552Z,23.83
2018-08-20T16:16:43.719Z,23.79
2018-08-20T16:19:10.905Z,23.93
2018-08-20T16:21:38.129Z,23.97
2018-08-20T16:24:05.432Z,23.97
2018-08-20T16:26:32.559Z,23.87
2018-08-20T16:28:59.777Z,23.78
2018-08-20T16:31:27.030Z,23.85
2018-08-20T16:33:54.224Z,23.88
2018-08-20T16:36:21.440Z,23.80
2018-08-20T16:38:48.555Z,23.84
2018-08-20T16:41:15.711Z,23.70
2018-08-20T16:43:42.961Z,23.63
2018-08-20T16:46:10.207Z,23.64
2018-08-20T16:48:37.314Z,23.65
2018-08-20T16:51:04.748Z,23.68
2018-08-20T16:53:31.789Z,23.71
2018-08-20T16:55:59.000Z,23.73
2018-08-20T16:58:26.264Z,23.73
2018-08-20T17:00:53.406Z,23.67
2018-08-20T17:03:20.593Z,23.70
2018-08-20T17:05:49.037Z,23.51
2018-08-20T17:08:24.375Z,23.44
2018-08-20T17:10:51.779Z,23.37
2018-08-20T17:13:18.912Z,23.32
2018-08-20T17:15:46.075Z,23.19
2018-08-20T17:18:13.280Z,23.24
2018-08-20T17:20:40.537Z,23.09
2018-08-20T17:23:19.146Z,23.05
2018-08-20T17:25:46.297Z,23.05
2018-08-20T17:28:13.458Z,23.06
2018-08-20T17:30:40.696Z,22.98
2018-08-20T17:33:08.192Z,22.95
2018-08-20T17:35:38.005Z,22.88
2018-08-20T17:38:05.689Z,22.89
2018-08-20T17:40:35.500Z,22.81
2018-08-20T17:43:02.696Z,22.74
2018-08-20T17:45:30.001Z,22.72
2018-08-20T17:47:57.143Z,22.69
2018-08-20T17:50:33.308Z,22.74
2018-08-20T17:53:00.456Z,22.77
2018-08-20T17:55:27.801Z,22.81
2018-08-20T17:57:55.097Z,22.70
2018-08-20T18:00:28.040Z,22.69
2018-08-20T18:02:55.179Z,22.61
2018-08-20T18:05:23.853Z,22.58
2018-08-20T18:07:51.353Z,22.48
2018-08-20T18:10:18.583Z,22.31
2018-08-20T18:12:47.872Z,22.23
2018-08-20T18:15:15.140Z,22.15
2018-08-20T18:17:42.782Z,22.22
2018-08-20T18:20:09.977Z,22.07
2018-08-20T18:22:37.184Z,22.03
2018-08-20T18:25:04.355Z,22.00
2018-08-20T18:27:41.582Z,21.87
2018-08-20T18:30:08.730Z,21.90
2018-08-20T18:32:35.949Z,21.84
2018-08-20T18:35:03.548Z,21.85
2018-08-20T18:37:33.694Z,21.87
2018-08-20T18:40:00.871Z,21.90
2018-08-20T18:42:33.861Z,21.95
2018-08-20T18:45:01.114Z,21.88
2018-08-20T18:47:28.341Z,21.82
2018-08-20T18:49:56.478Z,21.91
2018-08-20T18:52:25.739Z,21.91
2018-08-20T18:54:54.129Z,21.92
2018-08-20T18:57:24.778Z,21.83
2018-08-20T18:59:52.363Z,21.79
2018-08-20T19:02:31.903Z,21.76
2018-08-20T19:05:00.435Z,21.73
2018-08-20T19:07:27.711Z,21.70
2018-08-20T19:09:54.950Z,21.67
2018-08-20T19:12:22.084Z,21.65
2018-08-20T19:14:49.976Z,21.74
2018-08-20T19:17:32.096Z,21.68
2018-08-20T19:20:01.040Z,21.63
2018-08-20T19:22:29.002Z,21.65
2018-08-20T19:24:56.241Z,21.60
2018-08-20T19:27:28.627Z,21.56
2018-08-20T19:29:55.788Z,21.52
2018-08-20T19:32:23.106Z,21.50
2018-08-20T19:34:50.237Z,21.47
2018-08-20T19:37:17.500Z,21.50
2018-08-20T19:39:44.633Z,21.47
2018-08-20T19:42:14.661Z,21.46
2018-08-20T19:44:41.966Z,21.45
2018-08-20T19:47:09.126Z,21.47
2018-08-20T19:49:36.241Z,21.39
2018-08-20T19:52:03.416Z,21.37
2018-08-20T19:54:30.561Z,21.41
2018-08-20T19:56:57.848Z,21.46
2018-08-20T19:59:30.680Z,21.53
2018-08-20T20:01:57.816Z,21.33
2018-08-20T20:04:24.989Z,21.34
2018-08-20T20:06:52.149Z,21.40
2018-08-20T20:09:19.481Z,21.34
2018-08-20T20:11:48.395Z,21.27
2018-08-20T20:14:15.589Z,21.20
2018-08-20T20:16:48.369Z,21.18
2018-08-20T20:19:15.540Z,21.25
2018-08-20T20:21:42.825Z,21.38
2018-08-20T20:24:10.864Z,21.38
2018-08-20T20:26:38.085Z,21.34
2018-08-20T20:29:06.820Z,21.30
2018-08-20T20:31:33.913Z,21.36
2018-08-20T20:34:01.313Z,21.34
2018-08-20T20:36:29.698Z,21.32
2018-08-20T20:38:56.928Z,21.45
2018-08-20T20:41:24.169Z,21.37
2018-08-20T20:43:51.690Z,21.42
2018-08-20T20:46:19.002Z,21.47
2018-08-20T20:48:46.189Z,21.31
2018-08-20T20:51:13.339Z,21.23
2018-08-20T20:53:40.510Z,21.13
2018-08-20T20:56:07.765Z,21.20
2018-08-20T20:58:36.168Z,21.18
2018-08-20T21:01:04.579Z,20.98
2018-08-20T21:03:32.102Z,20.90
2018-08-20T21:05:59.339Z,20.80
2018-08-20T21:08:32.247Z,20.82
2018-08-20T21:10:59.614Z,20.74
2018-08-20T21:13:27.505Z,20.78
2018-08-20T21:16:00.475Z,20.86
2018-08-20T21:18:27.743Z,20.75
2018-08-20T21:20:54.905Z,20.66
2018-08-20T21:23:22.208Z,20.68
2018-08-20T21:25:49.324Z,20.83
2018-08-20T21:28:16.458Z,20.77
2018-08-20T21:30:45.309Z,20.76
2018-08-20T21:33:13.332Z,20.85
2018-08-20T21:35:40.754Z,20.95
2018-08-20T21:38:07.952Z,20.91
2018-08-20T21:40:35.069Z,20.93
2018-08-20T21:43:02.216Z,20.95
2018-08-20T21:45:29.442Z,20.84
2018-08-20T21:47:56.702Z,20.88
2018-08-20T21:50:26.017Z,20.98
2018-08-20T21:52:53.208Z,20.83
2018-08-20T21:55:20.330Z,20.88
2018-08-20T21:57:52.047Z,20.92
2018-08-20T22:00:20.238Z,20.86
2018-08-20T22:02:53.047Z,20.81
2018-08-20T22:05:20.263Z,20.90
2018-08-20T22:07:47.838Z,20.91
2018-08-20T22:10:15.091Z,20.93
2018-08-20T22:12:42.350Z,21.00
2018-08-20T22:15:09.517Z,21.04
2018-08-20T22:17:37.681Z,21.07
2018-08-20T22:20:06.343Z,21.07
2018-08-20T22:22:33.456Z,21.03
2018-08-20T22:25:01.597Z,21.13
2018-08-20T22:27:29.908Z,21.02
2018-08-20T22:30:00.905Z,21.02
2018-08-20T22:32:28.759Z,21.07
2018-08-20T22:34:55.956Z,21.02
2018-08-20T22:37:23.261Z,21.12
2018-08-20T22:39:56.164Z,21.12
2018-08-20T22:42:41.024Z,21.13
2018-08-20T22:45:08.405Z,21.07
2018-08-20T22:47:35.886Z,20.98
2018-08-20T22:50:03.196Z,20.96
2018-08-20T22:52:30.371Z,20.91
2018-08-20T22:54:57.504Z,20.95
2018-08-20T22:57:24.618Z,20.80
2018-08-20T22:59:52.007Z,20.77
2018-08-20T23:02:19.147Z,20.85
2018-08-20T23:04:50.901Z,20.79
2018-08-20T23:07:18.089Z,20.72
2018-08-20T23:09:45.228Z,20.65
2018-08-20T23:12:12.922Z,20.56
2018-08-20T23:14:41.224Z,20.46
2018-08-20T23:17:08.518Z,20.44
2018-08-20T23:19:35.659Z,20.42
2018-08-20T23:22:02.812Z,20.19
2018-08-20T23:24:30.157Z,20.26
2018-08-20T23:26:58.022Z,20.17
2018-08-20T23:29:25.310Z,20.23
2018-08-20T23:31:52.481Z,20.01
2018-08-20T23:34:19.585Z,19.83
2018-08-20T23:36:47.219Z,19.71
2018-08-20T23:39:15.892Z,19.71
2018-08-20T23:41:43.391Z,19.68
2018-08-20T23:44:10.979Z,19.71
2018-08-20T23:46:43.227Z,19.60
2018-08-20T23:49:10.548Z,19.51
2018-08-20T23:51:37.717Z,19.49
2018-08-20T23:54:04.916Z,19.51
2018-08-20T23:56:32.107Z,19.28
2018-08-20T23:58:59.549Z,19.26
